createdAt,value
2019-05-06T00:01:37.811Z,68.30
2019-05-06T00:04:07.797Z,68.05
2019-05-06T00:06:38.064Z,68.34
2019-05-06T00:09:08.793Z,70.66
2019-05-06T00:11:38.842Z,68.63
2019-05-06T00:14:08.838Z,72.17
2019-05-06T00:16:38.810Z,70.89
2019-05-06T00:19:08.796Z,70.88
2019-05-06T00:21:38.948Z,71.75
2019-05-06T00:24:08.979Z,71.35
2019-05-06T00:26:57.774Z,70.54
2019-05-06T00:29:30.074Z,71.22
2019-05-06T00:32:00.056Z,70.54
2019-05-06T00:34:30.034Z,69.98
2019-05-06T00:37:00.011Z,70.48
2019-05-06T00:39:47.564Z,72.13
2019-05-06T00:42:29.749Z,72.51
2019-05-06T00:44:59.721Z,73.47
2019-05-06T00:47:29.782Z,73.88
2019-05-06T00:49:59.810Z,74.93
2019-05-06T00:52:29.797Z,76.89
2019-05-06T00:54:59.752Z,72.42
2019-05-06T00:57:48.686Z,73.71
2019-05-06T01:00:24.265Z,72.90
2019-05-06T01:02:54.393Z,72.41
2019-05-06T01:05:24.601Z,72.96
2019-05-06T01:07:55.049Z,71.81
2019-05-06T01:10:25.209Z,71.95
2019-05-06T01:13:01.460Z,73.67
2019-05-06T01:15:31.595Z,73.94
2019-05-06T01:18:01.585Z,74.96
2019-05-06T01:20:33.795Z,73.41
2019-05-06T01:23:03.822Z,72.02
2019-05-06T01:25:34.576Z,73.61
2019-05-06T01:28:04.934Z,74.58
2019-05-06T01:30:35.171Z,74.68
2019-05-06T01:33:05.398Z,75.68
2019-05-06T01:35:35.423Z,75.44
2019-05-06T01:38:24.239Z,75.94
2019-05-06T01:41:13.618Z,77.24
2019-05-06T01:43:43.945Z,77.69
2019-05-06T01:46:14.088Z,75.99
2019-05-06T01:48:49.867Z,78.09
2019-05-06T01:51:20.581Z,76.73
2019-05-06T01:53:50.859Z,75.96
2019-05-06T01:56:20.921Z,74.43
2019-05-06T01:58:50.901Z,72.84
2019-05-06T02:01:20.931Z,75.63
2019-05-06T02:03:50.937Z,73.60
2019-05-06T02:06:21.359Z,73.86
2019-05-06T02:08:53.811Z,73.71
2019-05-06T02:11:24.129Z,72.59
2019-05-06T02:13:54.172Z,72.48
2019-05-06T02:16:24.222Z,73.37
2019-05-06T02:18:54.209Z,73.58
2019-05-06T02:21:43.845Z,74.12
2019-05-06T02:24:19.831Z,73.54
2019-05-06T02:26:49.800Z,73.97
2019-05-06T02:29:21.651Z,73.46
2019-05-06T02:32:25.496Z,75.24
2019-05-06T02:34:55.173Z,72.78
2019-05-06T02:37:50.055Z,75.33
2019-05-06T02:40:24.808Z,75.71
2019-05-06T02:42:55.023Z,75.26
2019-05-06T02:45:25.625Z,76.76
2019-05-06T02:48:26.557Z,79.82
2019-05-06T02:50:59.349Z,76.08
2019-05-06T02:53:29.322Z,76.97
2019-05-06T02:55:59.306Z,77.90
2019-05-06T02:58:29.270Z,76.55
2019-05-06T03:00:59.266Z,77.55
2019-05-06T03:03:29.337Z,79.09
2019-05-06T03:05:59.326Z,79.43
2019-05-06T03:08:29.647Z,79.32
2019-05-06T03:10:59.629Z,80.19
2019-05-06T03:13:29.618Z,80.30
2019-05-06T03:15:59.586Z,77.78
2019-05-06T03:18:32.521Z,78.43
2019-05-06T03:21:18.989Z,77.81
2019-05-06T03:23:54.355Z,77.83
2019-05-06T03:26:24.543Z,80.21
2019-05-06T03:28:54.502Z,78.59
2019-05-06T03:31:26.381Z,79.30
2019-05-06T03:34:21.878Z,79.23
2019-05-06T03:36:38.511Z,80.25
2019-05-06T03:38:59.589Z,78.68
2019-05-06T03:41:29.663Z,77.31
2019-05-06T03:43:59.625Z,81.43
2019-05-06T03:46:48.566Z,81.98
2019-05-06T03:49:18.618Z,82.65
2019-05-06T03:51:48.618Z,82.14
2019-05-06T03:54:19.292Z,80.79
2019-05-06T03:56:49.640Z,80.95
2019-05-06T03:59:23.344Z,79.46
2019-05-06T04:01:53.490Z,80.10
2019-05-06T04:04:23.647Z,80.39
2019-05-06T04:06:54.012Z,82.96
2019-05-06T04:09:24.296Z,77.95
2019-05-06T04:11:54.665Z,81.66
2019-05-06T04:14:25.032Z,81.88
2019-05-06T04:17:04.029Z,79.97
2019-05-06T04:19:46.871Z,80.43
2019-05-06T04:22:35.816Z,81.42
2019-05-06T04:25:16.983Z,81.42
2019-05-06T04:27:50.249Z,80.38
2019-05-06T04:30:24.055Z,82.40
2019-05-06T04:32:53.311Z,83.55
2019-05-06T04:35:23.634Z,83.27
2019-05-06T04:37:54.185Z,82.85
2019-05-06T04:40:24.256Z,83.49
2019-05-06T04:42:54.232Z,84.22
2019-05-06T04:45:24.200Z,84.00
2019-05-06T04:47:54.276Z,83.98
2019-05-06T04:50:24.582Z,84.43
2019-05-06T04:53:05.003Z,85.23
2019-05-06T04:55:35.448Z,85.60
2019-05-06T04:58:06.353Z,85.59
2019-05-06T05:00:37.019Z,86.61
2019-05-06T05:03:07.130Z,85.84
2019-05-06T05:05:37.138Z,85.68
2019-05-06T05:08:07.163Z,84.71
2019-05-06T05:10:44.168Z,84.95
2019-05-06T05:13:34.761Z,84.90
2019-05-06T05:16:26.609Z,84.66
2019-05-06T05:19:02.861Z,84.25
2019-05-06T05:21:32.830Z,84.87
2019-05-06T05:24:02.815Z,84.99
2019-05-06T05:26:32.776Z,84.26
2019-05-06T05:29:03.050Z,85.25
2019-05-06T05:31:33.379Z,85.52
2019-05-06T05:34:03.604Z,85.91
2019-05-06T05:36:33.572Z,85.54
2019-05-06T05:39:03.747Z,85.77
2019-05-06T05:41:33.778Z,85.11
2019-05-06T05:44:12.032Z,84.18
2019-05-06T05:46:43.830Z,84.30
2019-05-06T05:49:32.455Z,84.17
2019-05-06T05:52:03.373Z,83.95
2019-05-06T05:54:33.607Z,83.89
2019-05-06T05:57:03.697Z,83.97
2019-05-06T05:59:33.679Z,83.67
2019-05-06T06:02:04.033Z,83.06
2019-05-06T06:04:34.180Z,83.29
2019-05-06T06:07:04.158Z,83.28
2019-05-06T06:09:41.819Z,83.01
2019-05-06T06:12:12.052Z,82.25
2019-05-06T06:14:53.421Z,81.52
2019-05-06T06:17:42.886Z,81.90
2019-05-06T06:20:32.620Z,81.68
2019-05-06T06:23:07.986Z,81.11
2019-05-06T06:25:38.583Z,81.70
2019-05-06T06:28:08.561Z,81.13
2019-05-06T06:30:48.589Z,81.16
2019-05-06T06:33:18.776Z,80.62
2019-05-06T06:36:04.603Z,80.58
2019-05-06T06:38:52.711Z,80.55
2019-05-06T06:41:23.020Z,79.65
2019-05-06T06:43:56.637Z,79.29
2019-05-06T06:46:26.645Z,78.48
2019-05-06T06:48:56.627Z,78.34
2019-05-06T06:51:26.679Z,78.16
2019-05-06T06:53:56.651Z,77.61
2019-05-06T06:57:03.200Z,77.29
2019-05-06T06:59:29.359Z,77.40
2019-05-06T07:02:18.541Z,77.06
2019-05-06T07:05:02.465Z,77.19
2019-05-06T07:07:41.246Z,76.19
2019-05-06T07:10:12.136Z,75.84
2019-05-06T07:12:42.713Z,75.60
2019-05-06T07:15:12.846Z,74.99
2019-05-06T07:17:42.831Z,74.85
2019-05-06T07:20:14.564Z,74.37
2019-05-06T07:22:44.572Z,73.89
2019-05-06T07:25:14.593Z,74.30
2019-05-06T07:27:44.601Z,74.10
2019-05-06T07:30:15.151Z,73.82
2019-05-06T07:32:45.199Z,73.62
2019-05-06T07:35:15.177Z,74.12
2019-05-06T07:37:45.193Z,73.49
2019-05-06T07:40:15.204Z,73.25
2019-05-06T07:42:48.247Z,73.63
2019-05-06T07:45:28.773Z,73.84
2019-05-06T07:48:07.073Z,73.43
2019-05-06T07:50:37.061Z,73.24
2019-05-06T07:53:07.090Z,72.83
2019-05-06T07:55:37.901Z,73.10
2019-05-06T07:58:08.111Z,73.13
2019-05-06T08:00:38.166Z,72.70
2019-05-06T08:03:08.189Z,72.39
2019-05-06T08:05:51.583Z,72.10
2019-05-06T08:08:09.862Z,71.82
2019-05-06T08:10:42.232Z,71.37
2019-05-06T08:13:12.995Z,70.98
2019-05-06T08:15:43.414Z,70.69
2019-05-06T08:18:13.492Z,70.84
2019-05-06T08:20:43.485Z,69.43
2019-05-06T08:23:32.525Z,68.34
2019-05-06T08:26:12.681Z,67.73
2019-05-06T08:28:40.504Z,68.28
2019-05-06T08:31:06.089Z,68.70
2019-05-06T08:33:36.080Z,68.17
2019-05-06T08:36:13.993Z,67.92
2019-05-06T08:38:56.690Z,67.79
2019-05-06T08:41:26.870Z,67.20
2019-05-06T08:43:57.011Z,66.46
2019-05-06T08:46:26.994Z,66.34
2019-05-06T08:48:57.118Z,65.93
2019-05-06T08:51:48.815Z,65.86
2019-05-06T08:54:28.354Z,65.26
2019-05-06T08:56:58.346Z,63.98
2019-05-06T08:59:28.368Z,64.05
2019-05-06T09:01:59.500Z,64.76
2019-05-06T09:04:31.959Z,65.74
2019-05-06T09:07:02.964Z,65.92
2019-05-06T09:09:33.198Z,66.14
2019-05-06T09:12:03.208Z,65.92
2019-05-06T09:14:33.249Z,64.95
2019-05-06T09:17:03.728Z,64.91
2019-05-06T09:19:33.734Z,63.74
2019-05-06T09:22:03.813Z,62.84
2019-05-06T09:24:33.817Z,62.52
2019-05-06T09:27:22.603Z,62.61
2019-05-06T09:29:55.506Z,63.47
2019-05-06T09:32:35.945Z,63.84
2019-05-06T09:35:06.170Z,63.95
2019-05-06T09:37:36.166Z,64.12
2019-05-06T09:40:06.830Z,63.87
2019-05-06T09:42:36.808Z,64.20
2019-05-06T09:45:07.077Z,64.46
2019-05-06T09:47:48.658Z,64.96
2019-05-06T09:50:23.430Z,64.70
2019-05-06T09:52:53.434Z,64.11
2019-05-06T09:55:33.623Z,63.53
2019-05-06T09:58:05.188Z,63.53
2019-05-06T10:00:39.170Z,62.88
2019-05-06T10:03:09.140Z,62.89
2019-05-06T10:05:39.159Z,61.83
2019-05-06T10:08:09.165Z,60.29
2019-05-06T10:10:53.660Z,58.97
2019-05-06T10:13:12.820Z,58.97
2019-05-06T10:15:43.118Z,59.77
2019-05-06T10:18:13.566Z,60.45
2019-05-06T10:20:45.060Z,60.30
2019-05-06T10:23:15.334Z,60.49
2019-05-06T10:25:45.466Z,61.19
2019-05-06T10:28:33.487Z,61.19
2019-05-06T10:31:05.418Z,66.22
2019-05-06T10:33:37.113Z,66.22
2019-05-06T10:36:07.153Z,67.10
2019-05-06T10:38:59.494Z,67.28
2019-05-06T10:41:33.474Z,67.30
2019-05-06T10:44:25.597Z,70.15
2019-05-06T10:46:55.658Z,70.87
2019-05-06T10:49:25.671Z,73.39
2019-05-06T10:52:02.235Z,77.35
2019-05-06T10:54:32.342Z,78.67
2019-05-06T10:57:08.536Z,80.25
2019-05-06T10:59:38.517Z,81.63
2019-05-06T11:02:33.650Z,81.67
2019-05-06T11:05:04.062Z,82.56
2019-05-06T11:07:35.394Z,80.90
2019-05-06T11:10:05.774Z,79.07
2019-05-06T11:12:35.869Z,78.62
2019-05-06T11:15:06.682Z,77.04
2019-05-06T11:17:36.731Z,74.84
2019-05-06T11:20:10.262Z,73.36
2019-05-06T11:22:38.629Z,73.50
2019-05-06T11:25:08.683Z,72.66
2019-05-06T11:27:41.839Z,72.66
2019-05-06T11:30:18.269Z,71.62
2019-05-06T11:32:58.388Z,71.03
2019-05-06T11:35:52.835Z,75.34
2019-05-06T11:38:22.987Z,78.36
2019-05-06T11:40:53.353Z,82.27
2019-05-06T11:43:23.504Z,82.39
2019-05-06T11:45:53.553Z,81.97
2019-05-06T11:48:23.578Z,82.10
2019-05-06T11:50:57.228Z,79.35
2019-05-06T11:53:27.254Z,79.79
2019-05-06T11:55:57.252Z,81.26
2019-05-06T11:58:49.593Z,80.92
2019-05-06T12:01:43.474Z,81.65
2019-05-06T12:04:13.950Z,83.61
2019-05-06T12:06:44.100Z,83.49
2019-05-06T12:09:16.935Z,84.19
2019-05-06T12:11:46.010Z,84.71
2019-05-06T12:14:15.971Z,85.96
2019-05-06T12:16:46.019Z,86.54
2019-05-06T12:19:16.212Z,87.24
2019-05-06T12:21:46.225Z,87.19
2019-05-06T12:24:16.241Z,86.55
2019-05-06T12:26:46.744Z,87.09
2019-05-06T12:29:16.764Z,86.28
2019-05-06T12:31:52.821Z,86.85
2019-05-06T12:34:22.181Z,86.06
2019-05-06T12:36:55.713Z,86.98
2019-05-06T12:39:34.681Z,85.03
2019-05-06T12:42:12.667Z,85.16
2019-05-06T12:44:52.950Z,85.36
2019-05-06T12:47:42.516Z,84.69
2019-05-06T12:50:12.107Z,84.41
2019-05-06T12:52:44.091Z,84.27
2019-05-06T12:55:21.099Z,84.27
2019-05-06T12:57:46.236Z,85.59
2019-05-06T13:00:16.448Z,83.59
2019-05-06T13:02:46.460Z,83.16
2019-05-06T13:05:17.113Z,85.40
2019-05-06T13:07:47.978Z,86.23
2019-05-06T13:10:22.837Z,85.36
2019-05-06T13:13:01.859Z,86.06
2019-05-06T13:15:32.134Z,83.94
2019-05-06T13:18:06.850Z,84.79
2019-05-06T13:20:35.185Z,84.83
2019-05-06T13:23:27.817Z,82.31
2019-05-06T13:25:57.919Z,81.71
2019-05-06T13:28:30.588Z,82.97
2019-05-06T13:31:15.994Z,82.36
2019-05-06T13:33:40.746Z,81.63
2019-05-06T13:36:13.176Z,81.63
2019-05-06T13:38:43.404Z,82.58
2019-05-06T13:41:13.396Z,82.04
2019-05-06T13:43:47.980Z,80.94
2019-05-06T13:46:29.671Z,79.53
2019-05-06T13:49:17.368Z,79.49
2019-05-06T13:52:03.402Z,80.05
2019-05-06T13:54:32.106Z,80.87
2019-05-06T13:57:03.023Z,80.91
2019-05-06T13:59:35.114Z,80.56
2019-05-06T14:02:23.061Z,81.96
2019-05-06T14:04:53.119Z,81.15
2019-05-06T14:07:24.421Z,80.89
2019-05-06T14:09:54.776Z,82.02
2019-05-06T14:12:24.779Z,80.53
2019-05-06T14:14:54.822Z,79.80
2019-05-06T14:17:24.819Z,78.57
2019-05-06T14:19:54.831Z,78.31
2019-05-06T14:22:24.804Z,78.17
2019-05-06T14:25:09.117Z,77.48
2019-05-06T14:27:39.108Z,77.93
2019-05-06T14:30:19.643Z,77.40
2019-05-06T14:32:49.648Z,77.64
2019-05-06T14:35:19.650Z,77.03
2019-05-06T14:37:49.630Z,77.33
2019-05-06T14:40:22.562Z,77.49
2019-05-06T14:42:53.187Z,77.11
2019-05-06T14:45:23.266Z,77.89
2019-05-06T14:47:53.262Z,79.78
2019-05-06T14:50:31.683Z,79.26
2019-05-06T14:52:55.155Z,79.10
2019-05-06T14:55:29.708Z,78.06
2019-05-06T14:57:59.699Z,77.58
2019-05-06T15:00:31.873Z,76.78
2019-05-06T15:03:02.212Z,78.18
2019-05-06T15:05:35.976Z,78.73
2019-05-06T15:08:04.057Z,78.52
2019-05-06T15:10:34.153Z,78.69
2019-05-06T15:13:04.312Z,80.49
2019-05-06T15:15:34.416Z,80.96
2019-05-06T15:18:04.399Z,80.78
2019-05-06T15:20:34.448Z,82.94
2019-05-06T15:23:04.657Z,82.03
2019-05-06T15:25:34.743Z,83.16
2019-05-06T15:28:04.753Z,84.50
2019-05-06T15:30:42.939Z,84.71
2019-05-06T15:33:14.770Z,85.48
2019-05-06T15:36:02.411Z,85.59
2019-05-06T15:38:32.323Z,86.43
2019-05-06T15:41:02.388Z,85.99
2019-05-06T15:43:33.324Z,86.05
2019-05-06T15:46:03.463Z,85.10
2019-05-06T15:48:33.497Z,85.40
2019-05-06T15:51:03.508Z,85.41
2019-05-06T15:53:33.480Z,86.33
2019-05-06T15:56:03.658Z,85.48
2019-05-06T15:58:33.641Z,85.16
2019-05-06T16:01:03.663Z,85.20
2019-05-06T16:03:33.723Z,84.62
2019-05-06T16:06:03.717Z,83.61
2019-05-06T16:08:33.728Z,83.38
2019-05-06T16:11:03.767Z,83.64
2019-05-06T16:13:33.790Z,83.94
2019-05-06T16:16:06.864Z,82.78
2019-05-06T16:18:35.513Z,83.54
2019-05-06T16:21:05.536Z,83.82
2019-05-06T16:23:42.263Z,83.46
2019-05-06T16:26:12.533Z,83.95
2019-05-06T16:28:44.943Z,84.58
2019-05-06T16:31:14.341Z,85.36
2019-05-06T16:33:44.360Z,85.74
2019-05-06T16:36:14.662Z,85.43
2019-05-06T16:38:44.662Z,85.88
2019-05-06T16:41:16.361Z,86.22
2019-05-06T16:43:46.493Z,87.15
2019-05-06T16:46:16.533Z,86.00
2019-05-06T16:48:46.533Z,87.60
2019-05-06T16:51:16.536Z,88.40
2019-05-06T16:53:46.561Z,88.39
2019-05-06T16:56:23.014Z,89.19
2019-05-06T16:58:55.915Z,89.09
2019-05-06T17:01:26.019Z,87.07
2019-05-06T17:04:19.694Z,86.33
2019-05-06T17:06:49.723Z,86.51
2019-05-06T17:09:23.877Z,86.51
2019-05-06T17:11:51.533Z,87.59
2019-05-06T17:14:21.527Z,87.34
2019-05-06T17:16:52.687Z,88.15
2019-05-06T17:19:23.097Z,85.76
2019-05-06T17:21:53.279Z,87.46
2019-05-06T17:24:23.261Z,86.67
2019-05-06T17:26:56.196Z,88.58
2019-05-06T17:29:42.912Z,87.59
2019-05-06T17:32:27.532Z,89.03
2019-05-06T17:34:57.987Z,89.08
2019-05-06T17:37:55.716Z,88.61
2019-05-06T17:40:25.739Z,88.27
2019-05-06T17:42:55.796Z,88.28
2019-05-06T17:45:57.935Z,87.14
2019-05-06T17:48:37.944Z,88.43
2019-05-06T17:51:13.688Z,89.08
2019-05-06T17:53:46.525Z,90.20
2019-05-06T17:56:16.543Z,87.82
2019-05-06T17:58:46.577Z,89.78
2019-05-06T18:01:19.565Z,88.00
2019-05-06T18:03:49.618Z,89.37
2019-05-06T18:06:19.596Z,89.93
2019-05-06T18:08:49.613Z,89.09
2019-05-06T18:11:19.599Z,86.91
2019-05-06T18:13:49.602Z,88.50
2019-05-06T18:16:19.585Z,89.61
2019-05-06T18:18:52.150Z,89.60
2019-05-06T18:21:23.021Z,89.98
2019-05-06T18:23:53.244Z,89.29
2019-05-06T18:26:23.242Z,88.51
2019-05-06T18:28:53.270Z,88.40
2019-05-06T18:31:23.288Z,88.31
2019-05-06T18:33:53.294Z,88.25
2019-05-06T18:36:23.302Z,87.52
2019-05-06T18:38:53.381Z,86.46
2019-05-06T18:41:23.699Z,86.01
2019-05-06T18:43:53.800Z,86.81
2019-05-06T18:46:23.821Z,87.49
2019-05-06T18:48:53.865Z,87.18
2019-05-06T18:51:23.903Z,86.62
2019-05-06T18:53:53.986Z,85.74
2019-05-06T18:56:23.996Z,84.28
2019-05-06T18:58:54.024Z,84.19
2019-05-06T19:01:24.088Z,84.75
2019-05-06T19:04:09.924Z,83.54
2019-05-06T19:06:41.873Z,83.53
2019-05-06T19:09:28.130Z,83.14
2019-05-06T19:11:58.228Z,84.39
2019-05-06T19:14:28.256Z,84.31
2019-05-06T19:16:58.259Z,85.48
2019-05-06T19:19:28.312Z,85.20
2019-05-06T19:21:58.306Z,84.68
2019-05-06T19:24:28.358Z,84.47
2019-05-06T19:26:58.393Z,82.62
2019-05-06T19:29:28.418Z,83.95
2019-05-06T19:31:58.455Z,85.04
2019-05-06T19:34:28.489Z,84.93
2019-05-06T19:36:58.541Z,85.87
2019-05-06T19:39:28.595Z,83.55
2019-05-06T19:41:58.704Z,84.29
2019-05-06T19:44:28.725Z,85.96
2019-05-06T19:46:58.750Z,86.37
2019-05-06T19:49:28.743Z,83.49
2019-05-06T19:51:58.779Z,83.93
2019-05-06T19:54:28.760Z,86.25
2019-05-06T19:56:58.775Z,85.47
2019-05-06T19:59:28.750Z,86.54
2019-05-06T20:01:58.776Z,86.99
2019-05-06T20:04:28.819Z,87.08
2019-05-06T20:07:07.416Z,86.91
2019-05-06T20:09:55.734Z,86.77
2019-05-06T20:12:32.986Z,86.82
2019-05-06T20:15:20.851Z,85.80
2019-05-06T20:17:52.103Z,85.56
2019-05-06T20:20:22.869Z,84.42
2019-05-06T20:22:52.950Z,83.93
2019-05-06T20:25:23.084Z,85.51
2019-05-06T20:27:53.116Z,85.70
2019-05-06T20:30:23.152Z,86.19
2019-05-06T20:32:53.258Z,87.17
2019-05-06T20:35:23.254Z,86.27
2019-05-06T20:37:53.538Z,85.90
2019-05-06T20:40:23.615Z,85.13
2019-05-06T20:42:53.628Z,85.32
2019-05-06T20:45:23.730Z,87.04
2019-05-06T20:47:53.758Z,84.78
2019-05-06T20:50:27.067Z,85.42
2019-05-06T20:52:59.255Z,83.50
2019-05-06T20:55:32.615Z,82.26
2019-05-06T20:58:02.759Z,82.19
2019-05-06T21:00:33.562Z,82.21
2019-05-06T21:03:03.673Z,82.51
2019-05-06T21:05:33.674Z,82.81
2019-05-06T21:08:03.687Z,81.55
2019-05-06T21:10:33.709Z,82.50
2019-05-06T21:13:03.755Z,82.54
2019-05-06T21:15:33.750Z,82.75
2019-05-06T21:18:04.534Z,83.68
2019-05-06T21:20:34.622Z,83.53
2019-05-06T21:23:04.787Z,83.00
2019-05-06T21:25:34.781Z,82.16
2019-05-06T21:28:04.789Z,82.30
2019-05-06T21:30:34.780Z,81.10
2019-05-06T21:33:05.073Z,82.46
2019-05-06T21:35:35.472Z,82.38
2019-05-06T21:38:05.540Z,84.42
2019-05-06T21:40:35.556Z,82.68
2019-05-06T21:43:05.715Z,82.42
2019-05-06T21:45:35.773Z,81.97
2019-05-06T21:48:05.843Z,81.24
2019-05-06T21:50:36.171Z,82.54
2019-05-06T21:53:06.258Z,81.55
2019-05-06T21:55:36.443Z,80.95
2019-05-06T21:58:06.430Z,80.54
2019-05-06T22:00:54.721Z,80.41
2019-05-06T22:03:24.795Z,80.34
2019-05-06T22:05:54.889Z,81.07
2019-05-06T22:08:25.043Z,81.00
2019-05-06T22:10:55.110Z,82.26
2019-05-06T22:13:25.120Z,80.93
2019-05-06T22:15:55.103Z,80.37
2019-05-06T22:18:25.184Z,80.74
2019-05-06T22:21:13.045Z,81.00
2019-05-06T22:23:52.071Z,80.52
2019-05-06T22:26:23.061Z,82.00
2019-05-06T22:28:53.525Z,81.45
2019-05-06T22:31:24.579Z,81.09
2019-05-06T22:33:54.892Z,80.71
2019-05-06T22:36:24.993Z,81.03
2019-05-06T22:38:55.067Z,80.58
2019-05-06T22:41:25.596Z,81.42
2019-05-06T22:43:55.763Z,81.51
2019-05-06T22:46:25.718Z,84.14
2019-05-06T22:48:55.879Z,82.09
2019-05-06T22:51:25.866Z,82.64
2019-05-06T22:53:55.919Z,82.64
2019-05-06T22:56:25.907Z,82.03
2019-05-06T22:58:55.869Z,81.44
2019-05-06T23:01:44.064Z,81.53
2019-05-06T23:04:15.256Z,81.40
2019-05-06T23:06:45.213Z,82.23
2019-05-06T23:09:15.225Z,81.96
2019-05-06T23:11:45.205Z,82.55
2019-05-06T23:14:28.026Z,82.09
2019-05-06T23:16:46.893Z,83.51
2019-05-06T23:19:16.879Z,81.55
2019-05-06T23:21:46.894Z,81.76
2019-05-06T23:24:16.861Z,83.57
2019-05-06T23:26:46.885Z,82.71
2019-05-06T23:29:16.855Z,83.14
2019-05-06T23:31:46.935Z,82.16
2019-05-06T23:34:16.914Z,82.54
2019-05-06T23:37:23.359Z,82.16
2019-05-06T23:40:42.910Z,82.11
2019-05-06T23:43:48.895Z,82.69
2019-05-06T23:46:55.005Z,84.39
2019-05-06T23:50:03.393Z,82.87
2019-05-06T23:53:08.917Z,83.37
2019-05-06T23:56:14.769Z,84.24
2019-05-06T23:58:44.759Z,85.51
